createdAt,value
2018-09-17T00:00:17.805Z,5.43
2018-09-17T00:02:50.773Z,5.77
2018-09-17T00:05:27.861Z,6.00
2018-09-17T00:08:09.041Z,6.10
2018-09-17T00:10:42.305Z,6.37
2018-09-17T00:13:12.977Z,5.60
2018-09-17T00:15:56.737Z,6.00
2018-09-17T00:18:35.376Z,6.20
2018-09-17T00:21:20.334Z,5.67
2018-09-17T00:23:59.948Z,6.20
2018-09-17T00:26:32.717Z,6.60
2018-09-17T00:29:09.581Z,6.07
2018-09-17T00:31:45.105Z,6.30
2018-09-17T00:37:30.232Z,6.10
2018-09-17T00:40:11.324Z,6.57
2018-09-17T00:42:42.021Z,6.77
2018-09-17T00:45:30.413Z,5.90
2018-09-17T00:48:09.709Z,7.07
2018-09-17T00:50:42.993Z,6.17
2018-09-17T00:53:19.145Z,7.00
2018-09-17T00:55:49.841Z,6.47
2018-09-17T00:58:29.935Z,6.30
2018-09-17T01:01:09.381Z,6.80
2018-09-17T01:03:44.673Z,6.07
2018-09-17T01:06:38.712Z,7.30
2018-09-17T01:09:27.472Z,6.57
2018-09-17T01:12:01.305Z,6.57
2018-09-17T01:14:47.953Z,6.47
2018-09-17T01:17:21.789Z,6.10
2018-09-17T01:19:55.688Z,6.60
2018-09-17T01:22:28.653Z,6.83
2018-09-17T01:25:03.881Z,6.60
2018-09-17T01:27:40.749Z,6.80
2018-09-17T01:30:11.713Z,6.30
2018-09-17T01:32:45.785Z,6.20
2018-09-17T01:35:19.141Z,6.73
2018-09-17T01:37:50.029Z,6.50
2018-09-17T01:40:22.742Z,6.60
2018-09-17T01:42:58.077Z,7.03
2018-09-17T01:45:44.208Z,7.10
2018-09-17T01:48:15.045Z,6.83
2018-09-17T01:50:49.052Z,7.30
2018-09-17T01:53:18.869Z,7.17
2018-09-17T01:55:52.356Z,6.60
2018-09-17T01:58:44.296Z,7.90
2018-09-17T02:01:35.272Z,6.97
2018-09-17T02:04:05.821Z,6.90
2018-09-17T02:06:35.548Z,6.73
2018-09-17T02:09:10.798Z,6.57
2018-09-17T02:11:46.992Z,6.50
2018-09-17T02:14:27.764Z,7.10
2018-09-17T02:17:01.457Z,6.47
2018-09-17T02:19:42.217Z,6.63
2018-09-17T02:22:13.724Z,6.73
2018-09-17T02:24:45.465Z,7.70
2018-09-17T02:27:21.152Z,7.30
2018-09-17T02:29:51.649Z,7.33
2018-09-17T02:32:22.186Z,7.13
2018-09-17T02:35:07.637Z,7.63
2018-09-17T02:40:39.405Z,7.57
2018-09-17T02:46:22.744Z,7.47
2018-09-17T02:48:56.384Z,7.70
2018-09-17T02:54:28.128Z,7.20
2018-09-17T03:00:02.489Z,7.10
2018-09-17T03:02:34.151Z,7.10
2018-09-17T03:05:18.001Z,8.17
2018-09-17T03:07:48.560Z,6.90
2018-09-17T03:13:14.460Z,7.33
2018-09-17T03:15:55.916Z,8.50
2018-09-17T03:18:49.364Z,8.13
2018-09-17T03:21:19.912Z,7.47
2018-09-17T03:23:50.748Z,7.40
2018-09-17T03:26:34.500Z,6.90
2018-09-17T03:29:15.924Z,7.10
2018-09-17T03:31:50.425Z,8.33
2018-09-17T03:34:22.275Z,8.40
2018-09-17T03:39:46.589Z,7.80
2018-09-17T03:42:26.856Z,8.10
2018-09-17T03:45:02.164Z,8.20
2018-09-17T03:47:33.952Z,8.50
2018-09-17T03:50:12.006Z,9.03
2018-09-17T03:52:43.596Z,8.23
2018-09-17T03:55:14.304Z,7.57
2018-09-17T03:57:49.864Z,7.90
2018-09-17T04:00:49.420Z,8.10
2018-09-17T04:03:31.401Z,6.30
2018-09-17T04:09:01.509Z,6.63
2018-09-17T04:11:44.392Z,6.23
2018-09-17T04:14:19.740Z,5.93
2018-09-17T04:16:57.380Z,5.77
2018-09-17T04:19:26.856Z,6.10
2018-09-17T04:21:57.401Z,6.83
2018-09-17T04:24:26.886Z,6.47
2018-09-17T04:26:58.357Z,6.70
2018-09-17T04:29:57.940Z,6.70
2018-09-17T04:32:37.656Z,6.87
2018-09-17T04:35:18.965Z,5.90
2018-09-17T04:37:49.573Z,7.50
2018-09-17T04:40:29.336Z,6.93
2018-09-17T04:43:05.328Z,6.93
2018-09-17T04:45:48.460Z,6.67
2018-09-17T04:51:14.172Z,8.00
2018-09-17T04:54:03.820Z,8.17
2018-09-17T04:56:38.264Z,7.57
2018-09-17T04:59:14.900Z,7.97
2018-09-17T05:01:45.368Z,8.00
2018-09-17T05:04:22.624Z,8.60
2018-09-17T05:06:53.208Z,7.63
2018-09-17T05:09:26.684Z,7.00
2018-09-17T05:12:18.985Z,7.60
2018-09-17T05:14:50.680Z,7.60
2018-09-17T05:17:40.527Z,8.83
2018-09-17T05:20:12.012Z,9.93
2018-09-17T05:22:49.196Z,8.40
2018-09-17T05:25:23.784Z,8.33
2018-09-17T05:28:10.256Z,8.27
2018-09-17T05:30:49.684Z,7.43
2018-09-17T05:36:47.396Z,7.90
2018-09-17T05:39:19.221Z,8.57
2018-09-17T05:41:50.045Z,8.37
2018-09-17T05:44:26.375Z,8.60
2018-09-17T05:47:03.049Z,8.33
2018-09-17T05:49:32.788Z,7.23
2018-09-17T05:52:03.645Z,8.60
2018-09-17T05:54:33.204Z,8.33
2018-09-17T05:57:02.761Z,8.63
2018-09-17T05:59:49.653Z,9.67
2018-09-17T06:02:24.601Z,9.30
2018-09-17T06:04:57.693Z,9.47
2018-09-17T06:07:29.109Z,8.33
2018-09-17T06:10:16.480Z,9.77
2018-09-17T06:15:39.593Z,8.70
2018-09-17T06:18:23.852Z,9.27
2018-09-17T06:20:54.376Z,8.63
2018-09-17T06:23:25.939Z,8.50
2018-09-17T06:26:13.460Z,9.20
2018-09-17T06:28:44.293Z,9.23
2018-09-17T06:31:20.600Z,8.37
2018-09-17T06:33:50.164Z,8.80
2018-09-17T06:36:24.864Z,9.47
2018-09-17T06:38:58.624Z,10.80
2018-09-17T06:41:29.578Z,11.43
2018-09-17T06:44:02.372Z,10.47
2018-09-17T06:46:35.227Z,12.20
2018-09-17T06:49:06.920Z,11.90
2018-09-17T06:51:41.804Z,12.93
2018-09-17T06:54:16.776Z,12.90
2018-09-17T06:56:50.013Z,11.80
2018-09-17T06:59:34.308Z,12.57
2018-09-17T07:02:05.105Z,11.30
2018-09-17T07:04:35.897Z,13.60
2018-09-17T07:07:05.460Z,12.90
2018-09-17T07:09:49.332Z,12.77
2018-09-17T07:12:19.181Z,13.77
2018-09-17T07:14:54.348Z,14.17
2018-09-17T07:17:29.704Z,12.50
2018-09-17T07:20:19.624Z,12.80
2018-09-17T07:22:49.108Z,13.33
2018-09-17T07:25:18.721Z,14.67
2018-09-17T07:27:49.140Z,13.40
2018-09-17T07:30:18.684Z,12.93
2018-09-17T07:32:50.357Z,14.10
2018-09-17T07:35:20.109Z,14.23
2018-09-17T07:37:49.740Z,12.90
2018-09-17T07:40:19.520Z,13.90
2018-09-17T07:42:50.393Z,16.00
2018-09-17T07:45:30.140Z,15.67
2018-09-17T07:48:05.917Z,15.90
2018-09-17T07:50:37.208Z,15.37
2018-09-17T07:53:08.759Z,13.87
2018-09-17T07:55:42.456Z,15.13
2018-09-17T07:58:13.212Z,14.83
2018-09-17T08:00:48.811Z,15.43
2018-09-17T08:03:19.344Z,13.47
2018-09-17T08:05:50.045Z,13.57
2018-09-17T08:08:29.192Z,13.90
2018-09-17T08:11:04.896Z,14.90
2018-09-17T08:13:39.204Z,16.00
2018-09-17T08:16:14.352Z,15.97
2018-09-17T08:21:49.108Z,16.20
2018-09-17T08:24:19.656Z,15.10
2018-09-17T08:26:49.376Z,14.17
2018-09-17T08:29:25.556Z,11.70
2018-09-17T08:34:49.928Z,13.40
2018-09-17T08:37:21.697Z,14.20
2018-09-17T08:39:56.712Z,11.30
2018-09-17T08:42:26.400Z,10.27
2018-09-17T08:45:01.220Z,11.20
2018-09-17T08:47:48.208Z,12.87
2018-09-17T08:50:17.960Z,9.90
2018-09-17T08:52:49.745Z,11.33
2018-09-17T08:55:32.380Z,8.50
2018-09-17T08:58:13.013Z,10.03
2018-09-17T09:00:47.860Z,9.27
2018-09-17T09:03:26.737Z,9.60
2018-09-17T09:06:11.704Z,8.27
2018-09-17T09:08:41.396Z,11.33
2018-09-17T09:12:25.730Z,8.50
2018-09-17T09:15:08.260Z,9.03
2018-09-17T09:17:37.805Z,9.10
2018-09-17T09:20:11.296Z,7.70
2018-09-17T09:22:40.935Z,7.30
2018-09-17T09:28:05.780Z,5.70
2018-09-17T09:30:49.346Z,7.80
2018-09-17T09:33:28.822Z,7.73
2018-09-17T09:36:02.116Z,5.97
2018-09-17T09:41:46.376Z,6.13
2018-09-17T09:44:27.556Z,6.77
2018-09-17T09:49:59.048Z,4.93
2018-09-17T09:52:36.547Z,4.70
2018-09-17T09:55:19.867Z,5.37
2018-09-17T10:03:52.120Z,4.83
2018-09-17T10:06:28.036Z,4.90
2018-09-17T10:09:11.320Z,4.37
2018-09-17T10:11:54.917Z,5.10
2018-09-17T10:14:52.597Z,4.03
2018-09-17T10:20:48.833Z,5.10
2018-09-17T10:23:28.707Z,4.33
2018-09-17T10:26:06.592Z,4.50
2018-09-17T10:28:36.392Z,4.67
2018-09-17T10:31:09.888Z,5.20
2018-09-17T10:36:48.167Z,4.00
2018-09-17T10:39:35.237Z,3.90
2018-09-17T10:42:05.116Z,4.60
2018-09-17T10:44:46.707Z,4.57
2018-09-17T10:50:36.021Z,4.57
2018-09-17T10:53:36.944Z,5.00
2018-09-17T10:56:12.988Z,4.97
2018-09-17T10:59:01.616Z,4.80
2018-09-17T11:01:47.192Z,4.40
2018-09-17T11:04:18.940Z,3.50
2018-09-17T11:06:48.555Z,3.83
2018-09-17T11:15:14.479Z,4.03
2018-09-17T11:20:49.943Z,4.10
2018-09-17T11:23:45.996Z,3.93
2018-09-17T11:29:13.780Z,4.50
2018-09-17T11:31:43.608Z,3.50
2018-09-17T11:34:15.196Z,3.50
2018-09-17T11:36:44.713Z,3.20
2018-09-17T11:39:16.671Z,3.50
2018-09-17T11:41:49.580Z,3.40
2018-09-17T11:44:20.136Z,3.20
2018-09-17T11:46:49.635Z,3.50
2018-09-17T11:52:43.236Z,3.70
2018-09-17T11:55:14.975Z,3.30
2018-09-17T11:57:44.756Z,3.80
2018-09-17T12:00:26.684Z,3.70
2018-09-17T12:03:02.731Z,3.43
2018-09-17T12:05:54.308Z,3.50
2018-09-17T12:11:31.092Z,3.20
2018-09-17T12:14:17.172Z,2.80
2018-09-17T12:16:49.021Z,2.70
2018-09-17T12:19:29.176Z,2.63
2018-09-17T12:22:29.343Z,2.90
2018-09-17T12:25:06.920Z,2.40
2018-09-17T12:27:46.116Z,3.77
2018-09-17T12:33:20.920Z,2.97
2018-09-17T12:35:52.528Z,2.50
2018-09-17T12:38:35.419Z,2.60
2018-09-17T12:41:10.644Z,2.77
2018-09-17T12:43:42.372Z,2.60
2018-09-17T12:46:13.941Z,2.77
2018-09-17T12:48:44.784Z,2.90
2018-09-17T12:51:28.840Z,2.70
2018-09-17T12:54:21.857Z,2.93
2018-09-17T12:56:53.616Z,3.43
2018-09-17T12:59:29.968Z,2.50
2018-09-17T13:02:05.728Z,3.63
2018-09-17T13:04:38.784Z,2.80
2018-09-17T13:07:08.476Z,3.70
2018-09-17T13:09:40.148Z,3.60
2018-09-17T13:12:10.008Z,3.83
2018-09-17T13:14:43.536Z,3.13
2018-09-17T13:17:17.064Z,3.40
2018-09-17T13:19:50.628Z,3.43
2018-09-17T13:22:25.664Z,3.20
2018-09-17T13:24:58.608Z,3.27
2018-09-17T13:27:44.576Z,2.80
2018-09-17T13:30:15.148Z,3.20
2018-09-17T13:32:44.648Z,3.30
2018-09-17T13:35:14.376Z,4.03
2018-09-17T13:37:46.184Z,3.30
2018-09-17T13:40:17.080Z,3.53
2018-09-17T13:42:48.973Z,3.00
2018-09-17T13:45:22.816Z,3.10
2018-09-17T13:50:53.149Z,3.00
2018-09-17T13:53:29.824Z,3.20
2018-09-17T13:56:00.327Z,3.10
2018-09-17T13:58:47.248Z,2.63
2018-09-17T14:01:17.097Z,3.27
2018-09-17T14:03:48.836Z,3.00
2018-09-17T14:09:19.877Z,2.70
2018-09-17T14:11:56.784Z,2.57
2018-09-17T14:14:31.599Z,2.90
2018-09-17T14:17:02.455Z,3.40
2018-09-17T14:19:43.255Z,2.87
2018-09-17T14:22:16.343Z,3.57
2018-09-17T14:24:48.158Z,3.07
2018-09-17T14:27:23.076Z,3.00
2018-09-17T14:30:03.120Z,3.10
2018-09-17T14:32:38.981Z,2.73
2018-09-17T14:35:09.928Z,2.60
2018-09-17T14:37:39.535Z,3.20
2018-09-17T14:40:09.324Z,3.07
2018-09-17T14:42:40.096Z,3.20
2018-09-17T14:45:09.635Z,2.60
2018-09-17T14:47:42.387Z,2.60
2018-09-17T14:50:13.913Z,2.90
2018-09-17T14:52:48.159Z,2.80
2018-09-17T14:55:21.583Z,3.00
2018-09-17T14:57:57.136Z,3.00
2018-09-17T15:00:37.037Z,2.97
2018-09-17T15:03:26.366Z,2.83
2018-09-17T15:05:55.891Z,2.63
2018-09-17T15:08:29.542Z,3.10
2018-09-17T15:11:10.307Z,3.00
2018-09-17T15:13:45.979Z,2.20
2018-09-17T15:16:15.496Z,2.63
2018-09-17T15:18:46.995Z,2.70
2018-09-17T15:21:21.863Z,2.50
2018-09-17T15:23:56.809Z,3.03
2018-09-17T15:26:28.478Z,2.57
2018-09-17T15:28:57.956Z,3.00
2018-09-17T15:31:38.780Z,2.90
2018-09-17T15:34:14.729Z,2.73
2018-09-17T15:36:48.059Z,2.97
2018-09-17T15:39:23.024Z,2.67
2018-09-17T15:41:52.584Z,2.83
2018-09-17T15:44:23.327Z,2.83
2018-09-17T15:46:56.980Z,3.10
2018-09-17T15:49:33.179Z,2.60
2018-09-17T15:52:23.374Z,3.30
2018-09-17T15:54:56.467Z,3.40
2018-09-17T15:57:26.053Z,3.23
2018-09-17T16:00:00.948Z,3.27
2018-09-17T16:02:39.973Z,3.27
2018-09-17T16:11:06.025Z,2.87
2018-09-17T16:13:37.841Z,2.73
2018-09-17T16:16:08.455Z,3.10
2018-09-17T16:18:38.979Z,3.13
2018-09-17T16:21:10.620Z,2.90
2018-09-17T16:23:44.020Z,2.70
2018-09-17T16:26:17.869Z,3.60
2018-09-17T16:28:53.919Z,3.80
2018-09-17T16:31:33.632Z,3.40
2018-09-17T16:34:13.379Z,3.63
2018-09-17T16:39:49.219Z,3.13
2018-09-17T16:42:24.631Z,3.20
2018-09-17T16:44:59.864Z,3.27
2018-09-17T16:47:40.467Z,3.30
2018-09-17T16:50:11.947Z,3.20
2018-09-17T16:52:47.328Z,3.43
2018-09-17T16:55:34.352Z,3.67
2018-09-17T16:58:10.640Z,3.23
2018-09-17T17:00:42.324Z,3.10
2018-09-17T17:05:54.191Z,3.53
2018-09-17T17:08:23.652Z,3.50
2018-09-17T17:10:54.200Z,3.33
2018-09-17T17:13:23.903Z,3.40
2018-09-17T17:16:13.238Z,3.03
2018-09-17T17:19:12.169Z,3.40
2018-09-17T17:21:42.741Z,3.17
2018-09-17T17:24:19.086Z,3.57
2018-09-17T17:27:14.504Z,4.27
2018-09-17T17:29:58.544Z,3.63
2018-09-17T17:32:33.996Z,4.40
2018-09-17T17:35:04.528Z,4.27
2018-09-17T17:37:34.208Z,4.17
2018-09-17T17:40:17.192Z,3.53
2018-09-17T17:43:16.240Z,4.27
2018-09-17T17:45:46.840Z,3.50
2018-09-17T17:48:16.372Z,4.10
2018-09-17T17:50:57.004Z,4.03
2018-09-17T17:53:39.480Z,4.67
2018-09-17T17:56:17.676Z,4.30
2018-09-17T17:58:51.912Z,4.67
2018-09-17T18:01:22.788Z,4.27
2018-09-17T18:03:54.383Z,4.40
2018-09-17T18:06:23.809Z,3.73
2018-09-17T18:08:55.444Z,4.10
2018-09-17T18:11:26.040Z,4.90
2018-09-17T18:13:59.472Z,4.87
2018-09-17T18:16:30.600Z,4.30
2018-09-17T18:19:02.808Z,4.73
2018-09-17T18:21:38.112Z,4.00
2018-09-17T18:24:09.832Z,4.53
2018-09-17T18:26:41.491Z,4.30
2018-09-17T18:29:11.040Z,4.50
2018-09-17T18:31:43.973Z,4.23
2018-09-17T18:34:13.924Z,4.43
2018-09-17T18:36:43.537Z,3.80
2018-09-17T18:39:15.119Z,5.50
2018-09-17T18:41:45.871Z,9.20
2018-09-17T18:44:19.119Z,10.10
2018-09-17T18:46:48.916Z,8.20
2018-09-17T18:49:20.584Z,6.87
2018-09-17T18:51:51.175Z,5.33
2018-09-17T18:54:28.095Z,5.83
2018-09-17T18:57:00.767Z,5.67
2018-09-17T18:59:37.596Z,5.87
2018-09-17T19:02:10.847Z,6.33
2018-09-17T19:04:40.428Z,5.97
2018-09-17T19:07:12.962Z,6.53
2018-09-17T19:09:48.919Z,6.83
2018-09-17T19:12:24.093Z,6.23
2018-09-17T19:15:00.099Z,6.20
2018-09-17T19:17:39.841Z,6.17
2018-09-17T19:20:16.001Z,5.90
2018-09-17T19:22:58.664Z,5.73
2018-09-17T19:25:29.220Z,5.60
2018-09-17T19:28:08.192Z,6.00
2018-09-17T19:30:38.864Z,4.80
2018-09-17T19:33:08.435Z,6.40
2018-09-17T19:35:40.288Z,5.83
2018-09-17T19:38:16.260Z,5.40
2018-09-17T19:40:51.595Z,6.00
2018-09-17T19:43:22.183Z,5.63
2018-09-17T19:45:59.137Z,4.83
2018-09-17T19:48:30.643Z,4.90
2018-09-17T19:51:08.878Z,5.77
2018-09-17T19:53:38.431Z,5.03
2018-09-17T19:56:09.972Z,5.80
2018-09-17T19:58:44.807Z,5.03
2018-09-17T20:01:15.399Z,5.27
2018-09-17T20:03:44.943Z,5.27
2018-09-17T20:06:19.796Z,5.10
2018-09-17T20:08:50.402Z,4.53
2018-09-17T20:11:21.035Z,5.30
2018-09-17T20:13:52.590Z,5.33
2018-09-17T20:16:24.448Z,5.77
2018-09-17T20:18:59.068Z,5.17
2018-09-17T20:21:29.644Z,6.13
2018-09-17T20:24:02.879Z,5.47
2018-09-17T20:26:32.679Z,5.60
2018-09-17T20:29:07.316Z,7.37
2018-09-17T20:31:36.940Z,6.53
2018-09-17T20:34:06.531Z,6.20
2018-09-17T20:36:36.011Z,5.80
2018-09-17T20:39:07.884Z,5.63
2018-09-17T20:41:37.383Z,5.37
2018-09-17T20:44:06.855Z,6.83
2018-09-17T20:46:36.499Z,6.03
2018-09-17T20:49:06.165Z,5.57
2018-09-17T20:51:35.616Z,6.90
2018-09-17T20:54:06.227Z,5.47
2018-09-17T20:56:36.167Z,8.60
2018-09-17T20:59:06.159Z,5.40
2018-09-17T21:01:35.984Z,5.33
2018-09-17T21:04:06.667Z,6.07
2018-09-17T21:06:41.855Z,6.70
2018-09-17T21:09:12.339Z,4.90
2018-09-17T21:11:47.787Z,6.03
2018-09-17T21:14:18.649Z,6.30
2018-09-17T21:16:54.195Z,7.03
2018-09-17T21:19:24.243Z,6.60
2018-09-17T21:21:53.916Z,6.17
2018-09-17T21:24:25.503Z,6.47
2018-09-17T21:26:59.259Z,6.30
2018-09-17T21:29:32.159Z,7.77
2018-09-17T21:32:02.171Z,6.03
2018-09-17T21:34:33.707Z,6.07
2018-09-17T21:37:03.262Z,6.33
2018-09-17T21:39:33.735Z,6.33
2018-09-17T21:42:03.486Z,5.80
2018-09-17T21:44:34.341Z,5.50
2018-09-17T21:47:12.055Z,7.03
2018-09-17T21:49:43.891Z,6.23
2018-09-17T21:52:13.487Z,5.97
2018-09-17T21:54:43.106Z,7.33
2018-09-17T21:57:13.602Z,5.97
2018-09-17T21:59:43.091Z,7.13
2018-09-17T22:02:12.856Z,7.50
2018-09-17T22:04:42.499Z,7.00
2018-09-17T22:07:13.043Z,7.37
2018-09-17T22:09:45.635Z,6.30
2018-09-17T22:12:18.243Z,6.27
2018-09-17T22:14:52.876Z,7.30
2018-09-17T22:17:22.779Z,7.80
2018-09-17T22:19:52.536Z,6.40
2018-09-17T22:22:25.739Z,8.03
2018-09-17T22:24:55.291Z,8.43
2018-09-17T22:27:25.983Z,7.70
2018-09-17T22:29:55.467Z,7.83
2018-09-17T22:32:24.987Z,7.93
2018-09-17T22:34:58.994Z,9.30
2018-09-17T22:37:33.827Z,9.17
2018-09-17T22:40:06.599Z,8.40
2018-09-17T22:42:36.567Z,9.40
2018-09-17T22:45:06.155Z,8.20
2018-09-17T22:47:40.330Z,8.07
2018-09-17T22:50:10.063Z,7.77
2018-09-17T22:52:39.895Z,7.83
2018-09-17T22:55:13.891Z,7.50
2018-09-17T22:57:43.518Z,7.33
2018-09-17T23:00:13.214Z,7.07
2018-09-17T23:02:43.023Z,7.53
2018-09-17T23:05:19.854Z,6.37
2018-09-17T23:07:49.398Z,7.37
2018-09-17T23:10:22.010Z,7.53
2018-09-17T23:12:52.483Z,7.03
2018-09-17T23:15:23.011Z,8.03
2018-09-17T23:17:55.535Z,7.77
2018-09-17T23:20:28.178Z,7.47
2018-09-17T23:22:57.704Z,7.33
2018-09-17T23:25:28.235Z,9.00
2018-09-17T23:27:59.487Z,7.67
2018-09-17T23:30:29.248Z,7.77
2018-09-17T23:33:01.270Z,7.87
2018-09-17T23:35:32.786Z,8.97
2018-09-17T23:38:07.527Z,8.73
2018-09-17T23:40:38.243Z,8.30
2018-09-17T23:43:07.990Z,8.83
2018-09-17T23:45:39.686Z,9.60
2018-09-17T23:48:09.594Z,9.37
2018-09-17T23:50:39.443Z,9.80
2018-09-17T23:53:09.066Z,10.70
2018-09-17T23:55:39.610Z,10.80
2018-09-17T23:58:14.198Z,10.13
